Time;durP1;ratioP1;P1;durP2;ratioP2;P2;SDS_P1;SDS_P2;PMS_P1;PMS_P2;Temp;Humidity;BMP_temperature;BMP_pressure;BME280_temperature;BME280_humidity;BME280_pressure;Samples;Min_cycle;Max_cycle;Signal;HPM_P1;HPM_P2
2023/06/20 00:03:06;;;;;;;2.37;2.13;;;;;;;21.29;57.00;96555.25;10332693;28;20122;-31
2023/06/20 00:08:06;;;;;;;2.38;2.00;;;;;;;21.23;56.88;96533.25;10335564;28;20034;-31
2023/06/20 00:13:07;;;;;;;2.30;2.10;;;;;;;21.21;56.94;96517.16;10344173;28;20027;-30
2023/06/20 00:18:07;;;;;;;2.53;1.83;;;;;;;21.21;56.66;96527.34;10335215;28;20038;-31
2023/06/20 00:23:08;;;;;;;2.33;1.90;;;;;;;21.18;56.81;96507.03;10355442;28;20034;-31
2023/06/20 00:28:10;;;;;;;3.80;2.13;;;;;;;21.26;57.87;96484.84;10339012;28;20356;-30
2023/06/20 00:33:11;;;;;;;2.50;2.28;;;;;;;21.48;57.98;96481.09;10328689;28;20057;-31
2023/06/20 00:38:11;;;;;;;2.30;1.90;;;;;;;21.50;56.99;96479.38;10324575;28;20045;-31
2023/06/20 00:43:12;;;;;;;2.17;1.92;;;;;;;21.38;57.35;96487.19;10332339;28;20491;-31
2023/06/20 00:48:14;;;;;;;2.53;1.80;;;;;;;21.30;56.81;96475.47;10336530;28;20045;-31
2023/06/20 00:53:16;;;;;;;2.50;2.30;;;;;;;21.25;56.70;96475.53;10334800;28;20109;-30
2023/06/20 00:58:17;;;;;;;2.22;2.03;;;;;;;21.22;56.80;96472.19;10342343;28;20109;-31
2023/06/20 01:03:18;;;;;;;2.43;1.97;;;;;;;21.20;56.92;96472.19;10336317;28;20033;-32
2023/06/20 01:08:33;;;;;;;1.90;1.80;;;;;;;21.20;56.60;96469.66;10332571;28;20387;-32
2023/06/20 01:13:46;;;;;;;2.20;1.65;;;;;;;21.18;56.57;96461.19;10347817;28;20034;-31
2023/06/20 01:19:06;;;;;;;2.22;1.92;;;;;;;21.40;57.52;96456.63;10335544;28;20112;-31
2023/06/20 01:24:13;;;;;;;2.00;1.80;;;;;;;21.54;56.83;96468.25;10355710;28;20431;-30
2023/06/20 01:29:22;;;;;;;2.85;1.95;;;;;;;21.42;57.30;96465.06;10325903;28;20075;-30
2023/06/20 01:34:27;;;;;;;2.22;2.03;;;;;;;21.32;56.85;96456.72;10320238;28;20375;-31
2023/06/20 01:39:41;;;;;;;1.92;1.80;;;;;;;21.26;56.47;96461.94;10341638;28;20501;-31
2023/06/20 01:44:44;;;;;;;3.33;1.80;;;;;;;21.26;56.44;96464.47;10327454;28;20022;-31
2023/06/20 01:49:48;;;;;;;2.30;2.10;;;;;;;21.22;56.56;96456.91;10330810;28;20485;-31
2023/06/20 01:54:50;;;;;;;2.40;2.08;;;;;;;21.21;56.51;96450.97;10330906;28;20116;-31
2023/06/20 01:59:51;;;;;;;3.15;1.38;;;;;;;21.20;56.33;96440.78;10336230;28;20030;-31
2023/06/20 02:04:56;;;;;;;2.05;1.85;;;;;;;21.29;57.60;96444.03;10322728;28;20449;-31
2023/06/20 02:09:58;;;;;;;1.77;1.60;;;;;;;21.48;57.09;96440.34;10331778;28;20042;-31
2023/06/20 02:15:00;;;;;;;1.75;1.65;;;;;;;21.50;56.50;96453.06;10336703;28;20039;-31
2023/06/20 02:20:04;;;;;;;1.80;1.70;;;;;;;21.35;56.90;96436.31;10337913;28;20585;-31
2023/06/20 02:25:10;;;;;;;2.03;1.45;;;;;;;21.28;56.44;96436.41;10337429;28;20032;-31
2023/06/20 02:30:13;;;;;;;2.05;1.65;;;;;;;21.25;56.40;96426.28;10343639;28;20068;-31
2023/06/20 02:35:16;;;;;;;1.63;1.52;;;;;;;21.22;56.32;96424.63;10337787;28;20035;-32
2023/06/20 02:40:24;;;;;;;2.17;1.77;;;;;;;21.20;56.44;96413.63;10329810;28;20084;-30
2023/06/20 02:45:26;;;;;;;1.63;1.53;;;;;;;21.18;56.26;96417.91;10340243;28;20099;-31
2023/06/20 02:50:32;;;;;;;1.70;1.60;;;;;;;21.17;56.42;96416.25;10332334;28;20105;-31
2023/06/20 02:55:52;;;;;;;1.88;1.77;;;;;;;21.39;57.46;96415.00;10331495;28;20034;-30
2023/06/20 03:00:54;;;;;;;1.50;1.38;;;;;;;21.55;56.95;96410.53;10336727;28;20040;-31
2023/06/20 03:05:56;;;;;;;1.40;1.30;;;;;;;21.46;56.65;96398.78;10339675;28;20416;-31
2023/06/20 03:10:58;;;;;;;2.03;1.73;;;;;;;21.35;56.83;96402.34;10323676;28;20026;-31
2023/06/20 03:15:58;;;;;;;2.85;2.20;;;;;;;21.29;56.74;96417.75;10328050;28;20121;-31
2023/06/20 03:20:59;;;;;;;2.55;1.67;;;;;;;21.24;56.26;96405.06;10336630;28;20460;-31
2023/06/20 03:26:00;;;;;;;2.15;1.38;;;;;;;21.22;56.38;96422.09;10327822;28;20215;-31
2023/06/20 03:31:01;;;;;;;1.92;1.77;;;;;;;21.22;56.19;96417.00;10335394;28;20034;-32
2023/06/20 03:36:03;;;;;;;3.13;1.70;;;;;;;21.18;56.33;96423.00;10327179;28;20092;-31
2023/06/20 03:41:03;;;;;;;1.60;1.27;;;;;;;21.19;56.22;96423.84;10322168;28;20416;-31
2023/06/20 03:46:05;;;;;;;5.05;4.40;;;;;;;21.45;61.79;96420.00;10348436;28;20049;-32
2023/06/20 03:51:06;;;;;;;7.75;6.07;;;;;;;21.82;65.64;96435.56;10351531;28;20029;-30
2023/06/20 03:56:07;;;;;;;10.13;6.90;;;;;;;21.64;66.91;96431.56;10350826;28;20045;-31
2023/06/20 04:01:08;;;;;;;7.63;5.78;;;;;;;21.57;66.91;96435.09;10324338;28;20027;-31
2023/06/20 04:06:09;;;;;;;6.70;6.03;;;;;;;21.53;67.44;96428.38;10341338;28;21217;-31
2023/06/20 04:11:09;;;;;;;8.87;6.70;;;;;;;21.50;67.99;96428.44;10383297;28;20042;-31
2023/06/20 04:16:09;;;;;;;11.63;6.93;;;;;;;21.45;68.24;96440.41;10367614;28;20413;-31
2023/06/20 04:21:10;;;;;;;7.13;6.43;;;;;;;21.44;67.93;96436.16;10384755;28;20036;-30
2023/06/20 04:26:11;;;;;;;8.98;6.30;;;;;;;21.39;68.62;96434.56;10347398;28;20038;-31
2023/06/20 04:31:11;;;;;;;7.43;5.45;;;;;;;21.36;68.60;96434.59;10323674;28;20034;-31
2023/06/20 04:36:14;;;;;;;7.95;6.50;;;;;;;21.38;68.64;96441.34;10333342;28;20035;-31
2023/06/20 04:41:16;;;;;;;7.15;6.10;;;;;;;21.39;68.95;96440.47;10332471;28;20399;-31
2023/06/20 04:46:17;;;;;;;6.50;5.90;;;;;;;21.35;68.26;96435.47;10342798;28;20034;-30
2023/06/20 04:51:17;;;;;;;6.10;5.40;;;;;;;21.32;65.38;96446.53;10334854;28;20034;-31
2023/06/20 04:56:19;;;;;;;8.77;7.07;;;;;;;21.29;65.30;96433.84;10328269;28;20456;-31
2023/06/20 05:01:20;;;;;;;7.13;4.78;;;;;;;21.25;64.02;96436.47;10345227;28;20405;-31
2023/06/20 05:06:20;;;;;;;12.07;5.83;;;;;;;21.24;62.66;96435.63;10369752;28;20022;-32
2023/06/20 05:11:22;;;;;;;13.23;6.88;;;;;;;21.24;62.38;96440.72;10337671;28;20285;-32
2023/06/20 05:16:22;;;;;;;11.00;6.40;;;;;;;21.25;61.98;96432.25;10335438;28;20042;-30
2023/06/20 05:21:23;;;;;;;10.68;5.85;;;;;;;21.38;62.64;96438.81;10350106;28;20393;-31
2023/06/20 05:26:26;;;;;;;5.97;4.33;;;;;;;21.53;61.52;96430.06;10365545;28;20445;-31
2023/06/20 05:31:26;;;;;;;5.53;4.13;;;;;;;21.45;61.01;96425.13;10369019;28;20042;-31
2023/06/20 05:36:26;;;;;;;10.07;5.23;;;;;;;21.37;61.34;96426.09;10370510;28;20396;-31
2023/06/20 05:41:27;;;;;;;14.50;6.13;;;;;;;21.30;60.78;96425.34;10365457;28;20062;-31
2023/06/20 05:46:27;;;;;;;8.97;4.17;;;;;;;21.29;60.31;96428.75;10349471;28;20030;-31
2023/06/20 05:51:29;;;;;;;6.90;4.53;;;;;;;21.25;59.85;96423.75;10345745;28;20034;-31
2023/06/20 05:56:29;;;;;;;8.65;4.50;;;;;;;21.25;59.71;96411.88;10365275;28;20044;-31
2023/06/20 06:01:30;;;;;;;5.87;4.03;;;;;;;21.23;59.48;96423.75;10361139;28;20044;-30
2023/06/20 06:06:31;;;;;;;8.43;3.80;;;;;;;21.23;59.63;96415.28;10348317;28;20026;-31
2023/06/20 06:11:31;;;;;;;4.32;3.30;;;;;;;21.43;60.28;96414.13;10348556;28;20791;-31
2023/06/20 06:16:32;;;;;;;5.47;3.90;;;;;;;21.52;59.52;96416.50;10354544;28;20034;-30
2023/06/20 06:21:32;;;;;;;4.95;3.42;;;;;;;21.41;59.77;96412.44;10368514;28;20065;-31
2023/06/20 06:26:34;;;;;;;5.28;4.47;;;;;;;21.33;59.59;96421.91;10336364;28;20089;-31
2023/06/20 06:31:35;;;;;;;6.25;3.78;;;;;;;21.29;59.36;96422.84;10377833;28;20056;-31
2023/06/20 06:36:36;;;;;;;8.15;3.88;;;;;;;21.26;59.09;96417.78;10362497;28;20466;-31
2023/06/20 06:41:37;;;;;;;5.68;3.67;;;;;;;21.26;58.91;96417.78;10373277;28;20102;-31
2023/06/20 06:46:39;;;;;;;4.70;3.25;;;;;;;21.23;59.05;96426.31;10363373;28;20467;-31
2023/06/20 06:51:40;;;;;;;5.50;3.72;;;;;;;21.25;59.11;96436.47;10365810;28;20068;-32
2023/06/20 06:56:40;;;;;;;4.75;3.80;;;;;;;21.34;60.19;96428.69;10373317;28;20121;-31
2023/06/20 07:01:41;;;;;;;5.70;3.60;;;;;;;21.51;59.52;96413.97;10363155;28;20048;-31
2023/06/20 07:06:41;;;;;;;3.33;3.03;;;;;;;21.56;58.81;96410.47;10359231;28;20467;-31
2023/06/20 07:11:41;;;;;;;3.73;2.93;;;;;;;21.42;58.55;96419.22;10387368;28;20034;-31
2023/06/20 07:16:42;;;;;;;3.83;3.10;;;;;;;21.37;58.63;96426.94;10366419;28;20239;-31
2023/06/20 07:21:42;;;;;;;4.67;3.20;;;;;;;21.35;58.54;96407.44;10348406;28;20402;-31
2023/06/20 07:26:42;;;;;;;4.03;3.43;;;;;;;21.32;58.58;96403.25;10358192;28;20526;-31
2023/06/20 07:31:43;;;;;;;4.57;3.13;;;;;;;21.30;58.43;96394.78;10370279;28;20032;-31
2023/06/20 07:36:43;;;;;;;2.70;2.40;;;;;;;21.30;58.65;96399.06;10355003;28;20034;-30
2023/06/20 07:41:43;;;;;;;3.47;3.17;;;;;;;21.27;57.99;96402.50;10351097;28;20103;-31
2023/06/20 07:46:44;;;;;;;4.63;3.50;;;;;;;21.39;59.99;96402.28;10367575;28;20029;-31
2023/06/20 07:51:45;;;;;;;6.10;3.43;;;;;;;21.57;59.23;96399.41;10352047;28;20030;-31
2023/06/20 07:56:46;;;;;;;3.75;3.35;;;;;;;21.56;58.84;96390.09;10369125;28;20571;-32
2023/06/20 08:01:46;;;;;;;3.40;2.93;;;;;;;21.43;58.08;96386.09;10344773;28;20561;-31
2023/06/20 08:06:47;;;;;;;4.60;3.50;;;;;;;21.37;58.47;96381.09;10358204;28;20025;-32
2023/06/20 08:11:49;;;;;;;4.23;2.83;;;;;;;21.34;58.60;96378.63;10377967;28;20056;-31
2023/06/20 08:16:49;;;;;;;3.10;2.80;;;;;;;21.32;58.28;96370.13;10364888;28;20037;-31
2023/06/20 08:21:50;;;;;;;3.50;3.20;;;;;;;21.30;57.57;96376.16;10378148;28;20026;-31
2023/06/20 08:26:50;;;;;;;2.90;2.70;;;;;;;21.30;58.02;96376.16;10373041;28;20284;-30
2023/06/20 08:31:50;;;;;;;3.57;3.27;;;;;;;21.29;58.25;96366.81;10361329;28;20025;-31
2023/06/20 08:36:53;;;;;;;2.83;2.40;;;;;;;21.44;59.21;96369.94;10363733;28;20041;-31
2023/06/20 08:41:54;;;;;;;3.90;3.28;;;;;;;21.60;58.83;96368.81;10381554;28;20156;-30
2023/06/20 08:46:57;;;;;;;3.35;3.05;;;;;;;21.54;58.52;96362.97;10368947;28;20180;-31
2023/06/20 08:52:04;;;;;;;3.05;2.70;;;;;;;21.41;58.21;96362.34;10343566;28;20030;-31
2023/06/20 08:57:07;;;;;;;4.30;3.10;;;;;;;21.36;58.09;96359.03;10326901;28;20518;-31
2023/06/20 09:02:08;;;;;;;4.20;3.20;;;;;;;21.33;58.29;96361.66;10372619;28;20123;-31
2023/06/20 09:07:19;;;;;;;4.57;3.47;;;;;;;21.33;58.56;96369.31;10359562;28;20105;-31
2023/06/20 09:12:20;;;;;;;4.05;3.65;;;;;;;21.31;58.65;96360.81;10368166;28;20042;-31
2023/06/20 09:17:21;;;;;;;3.50;3.20;;;;;;;21.32;58.77;96357.41;10392309;28;20042;-30
2023/06/20 09:22:23;;;;;;;4.10;3.67;;;;;;;21.34;60.33;96360.78;10350964;28;20045;-31
2023/06/20 09:27:24;;;;;;;3.00;2.70;;;;;;;21.54;59.00;96356.19;10361963;28;20112;-31
2023/06/20 09:32:24;;;;;;;3.20;2.90;;;;;;;21.60;58.61;96358.63;10377700;28;20034;-32
2023/06/20 09:37:26;;;;;;;2.80;2.47;;;;;;;21.48;58.35;96360.53;10362414;28;20510;-31
2023/06/20 09:42:27;;;;;;;3.85;2.92;;;;;;;21.39;57.90;96358.97;10366267;28;20038;-31
2023/06/20 09:47:28;;;;;;;3.38;3.08;;;;;;;21.36;58.32;96369.22;10349699;28;20240;-30
2023/06/20 09:52:33;;;;;;;4.55;3.42;;;;;;;21.35;58.52;96369.25;10368237;28;20041;-30
2023/06/20 09:58:04;;;;;;;3.25;2.95;;;;;;;21.33;58.28;96358.25;10353618;28;20197;-30
2023/06/20 10:03:10;;;;;;;2.90;2.60;;;;;;;21.32;58.73;96357.41;10343122;28;20042;-31
2023/06/20 10:08:11;;;;;;;6.53;4.15;;;;;;;21.29;58.46;96365.09;10370030;28;20033;-31
2023/06/20 10:13:13;;;;;;;3.45;2.70;;;;;;;21.47;59.31;96354.59;10364375;28;20092;-31
2023/06/20 10:18:35;;;;;;;2.67;2.47;;;;;;;21.64;58.94;96352.59;10356011;28;20061;-31
2023/06/20 10:23:39;;;;;;;3.20;2.90;;;;;;;21.56;58.71;96341.69;10364585;28;20406;-30
2023/06/20 10:28:41;;;;;;;3.65;2.85;;;;;;;21.43;58.23;96336.84;10344103;28;20307;-32
2023/06/20 10:33:45;;;;;;;2.70;2.50;;;;;;;21.39;58.23;96327.59;10356019;28;20033;-31
2023/06/20 10:38:51;;;;;;;2.95;2.45;;;;;;;21.35;58.50;96331.91;10363519;28;20131;-31
2023/06/20 10:43:58;;;;;;;2.95;2.70;;;;;;;21.34;58.57;96335.31;10374240;28;20105;-31
2023/06/20 10:48:58;;;;;;;4.07;3.10;;;;;;;21.33;58.67;96338.75;10355259;28;20084;-30
2023/06/20 10:54:09;;;;;;;3.73;3.43;;;;;;;21.30;58.62;96327.75;10362236;28;20054;-31
2023/06/20 10:59:09;;;;;;;3.80;3.35;;;;;;;21.35;60.62;96331.91;10347729;28;20046;-30
2023/06/20 11:04:12;;;;;;;3.53;3.13;;;;;;;21.56;59.32;96328.97;10354959;28;20113;-30
2023/06/20 11:09:20;;;;;;;4.13;3.05;;;;;;;21.65;58.67;96321.19;10364782;28;20038;-32
2023/06/20 11:14:22;;;;;;;2.63;2.28;;;;;;;21.53;58.70;96326.47;10360699;28;20030;-32
2023/06/20 11:19:26;;;;;;;2.70;2.50;;;;;;;21.46;58.50;96319.81;10339624;28;20042;-31
2023/06/20 11:24:26;;;;;;;3.05;2.78;;;;;;;21.40;58.73;96319.09;10361370;28;20041;-30
2023/06/20 11:29:36;;;;;;;3.30;3.00;;;;;;;21.36;58.60;96297.06;10367210;28;20489;-30
2023/06/20 11:34:59;;;;;;;2.78;2.58;;;;;;;21.33;58.74;96298.00;10365258;28;20022;-31
2023/06/20 11:40:00;;;;;;;2.97;2.65;;;;;;;21.34;58.79;96299.66;10355002;28;20520;-31
2023/06/20 11:45:10;;;;;;;3.58;2.75;;;;;;;21.32;58.74;96301.38;10362703;28;20030;-31
2023/06/20 11:50:23;;;;;;;2.80;2.60;;;;;;;21.46;59.45;96286.69;10350343;28;20042;-32
2023/06/20 11:55:46;;;;;;;2.83;2.60;;;;;;;21.67;58.95;96293.13;10336355;28;20052;-32
2023/06/20 12:01:00;;;;;;;2.75;2.45;;;;;;;21.57;58.85;96292.41;10347830;28;20057;-33
2023/06/20 12:06:00;;;;;;;2.53;2.33;;;;;;;21.47;57.85;96290.91;10375707;28;20030;-31
2023/06/20 12:11:03;;;;;;;6.17;2.37;;;;;;;21.44;58.18;96296.09;10363413;28;20452;-31
2023/06/20 12:16:03;;;;;;;3.58;3.05;;;;;;;21.39;58.37;96292.78;10343698;28;20296;-31
2023/06/20 12:21:04;;;;;;;9.25;3.45;;;;;;;21.38;58.74;96283.44;10360125;28;20417;-31
2023/06/20 12:26:04;;;;;;;14.45;3.58;;;;;;;21.39;59.35;96272.38;10367993;28;20036;-31
2023/06/20 12:31:05;;;;;;;6.30;3.13;;;;;;;21.38;58.92;96268.16;10366658;28;20042;-31
2023/06/20 12:36:06;;;;;;;10.50;3.80;;;;;;;21.44;61.53;96282.50;10373887;28;20045;-30
2023/06/20 12:41:06;;;;;;;7.03;3.25;;;;;;;21.63;60.50;96281.31;10367752;28;20399;-31
2023/06/20 12:46:06;;;;;;;3.40;2.60;;;;;;;21.68;59.08;96275.28;10359366;28;20561;-31
2023/06/20 12:51:07;;;;;;;3.40;3.10;;;;;;;21.58;59.47;96266.09;10384251;28;20041;-31
2023/06/20 12:56:07;;;;;;;5.77;3.10;;;;;;;21.51;58.75;96262.00;10357767;28;20034;-31
2023/06/20 13:01:08;;;;;;;13.35;3.67;;;;;;;21.48;60.03;96256.13;10374794;28;20116;-31
2023/06/20 13:06:08;;;;;;;13.60;4.90;;;;;;;21.48;59.28;96249.28;10355700;28;20081;-31
2023/06/20 13:11:09;;;;;;;8.13;4.33;;;;;;;21.46;58.69;96261.22;10366228;28;20556;-31
2023/06/20 13:16:09;;;;;;;10.83;3.70;;;;;;;21.47;59.13;96249.34;10373568;28;20034;-31
2023/06/20 13:21:10;;;;;;;18.33;5.63;;;;;;;21.45;58.84;96245.97;10375068;28;20418;-31
2023/06/20 13:26:11;;;;;;;7.87;3.50;;;;;;;21.58;60.35;96253.38;10356685;28;20048;-31
2023/06/20 13:31:11;;;;;;;6.07;2.97;;;;;;;21.73;60.06;96247.97;10349275;28;20395;-31
2023/06/20 13:36:12;;;;;;;4.28;3.00;;;;;;;21.65;59.95;96244.75;10360349;28;20034;-32
2023/06/20 13:41:12;;;;;;;6.40;3.35;;;;;;;21.57;59.39;96240.66;10348856;28;20038;-31
2023/06/20 13:46:13;;;;;;;4.10;3.40;;;;;;;21.51;58.76;96239.06;10345665;28;20049;-31
2023/06/20 13:51:16;;;;;;;5.47;3.23;;;;;;;21.50;59.36;96234.00;10370228;28;20041;-31
2023/06/20 13:56:17;;;;;;;10.30;4.00;;;;;;;21.49;59.24;96238.25;10381910;28;20128;-31
2023/06/20 14:01:18;;;;;;;11.03;4.33;;;;;;;21.52;60.41;96227.16;10384893;28;20183;-32
2023/06/20 14:06:18;;;;;;;6.45;3.65;;;;;;;21.50;59.88;96241.63;10369079;28;20978;-31
2023/06/20 14:11:21;;;;;;;10.83;4.43;;;;;;;21.56;63.59;96244.06;10360815;28;20041;-32
2023/06/20 14:16:22;;;;;;;5.50;3.33;;;;;;;21.70;60.31;96240.41;10360885;28;20296;-33
2023/06/20 14:21:22;;;;;;;5.35;3.72;;;;;;;21.76;59.60;96240.28;10341285;28;20458;-31
2023/06/20 14:26:23;;;;;;;7.50;3.23;;;;;;;21.65;60.31;96229.47;10377270;28;20101;-31
2023/06/20 14:31:23;;;;;;;6.20;3.70;;;;;;;21.59;60.40;96223.63;10350871;28;20041;-31
2023/06/20 14:36:28;;;;;;;15.60;5.30;;;;;;;21.57;60.13;96228.75;10359400;28;20044;-31
2023/06/20 14:41:29;;;;;;;6.72;3.22;;;;;;;21.56;60.46;96238.97;10358247;28;20030;-31
2023/06/20 14:46:29;;;;;;;10.88;3.90;;;;;;;21.54;60.85;96216.06;10386889;28;20044;-31
2023/06/20 14:51:30;;;;;;;11.20;5.33;;;;;;;21.52;59.99;96217.81;10361304;28;20050;-31
2023/06/20 14:56:30;;;;;;;14.47;5.97;;;;;;;21.52;59.63;96207.63;10353243;28;20293;-32
2023/06/20 15:01:30;;;;;;;11.27;4.53;;;;;;;21.62;60.84;96204.03;10365683;28;20084;-31
2023/06/20 15:06:31;;;;;;;10.07;4.18;;;;;;;21.78;60.03;96209.66;10375492;28;20062;-31
2023/06/20 15:11:31;;;;;;;10.77;3.25;;;;;;;21.72;60.34;96215.72;10347538;28;20406;-31
2023/06/20 15:16:32;;;;;;;10.53;4.30;;;;;;;21.63;60.24;96194.69;10358650;28;20045;-31
2023/06/20 15:21:32;;;;;;;10.03;4.33;;;;;;;21.57;59.56;96185.44;10368119;28;20033;-31
2023/06/20 15:26:32;;;;;;;11.00;3.97;;;;;;;21.56;60.83;96181.22;10370406;28;20041;-31
2023/06/20 15:31:33;;;;;;;10.00;4.87;;;;;;;21.57;61.03;96190.53;10359248;28;20040;-31
2023/06/20 15:36:33;;;;;;;9.70;4.50;;;;;;;21.57;61.06;96198.16;10370962;28;20034;-32
2023/06/20 15:41:34;;;;;;;7.77;4.37;;;;;;;21.55;60.50;96169.34;10366721;28;20045;-31
2023/06/20 15:46:34;;;;;;;9.38;4.18;;;;;;;21.56;62.17;96176.13;10345198;28;20288;-31
2023/06/20 15:51:35;;;;;;;6.67;3.47;;;;;;;21.72;60.49;96195.34;10350672;28;20029;-32
2023/06/20 15:56:36;;;;;;;6.45;3.78;;;;;;;21.82;59.96;96257.97;10355149;28;20578;-31
2023/06/20 16:01:36;;;;;;;7.03;3.03;;;;;;;21.68;60.13;96282.91;10337907;28;20034;-31
2023/06/20 16:06:37;;;;;;;8.48;3.70;;;;;;;21.60;59.91;96279.66;10365796;28;20297;-31
2023/06/20 16:11:37;;;;;;;10.27;4.23;;;;;;;21.57;63.39;96297.50;10328051;28;20454;-31
2023/06/20 16:16:38;;;;;;;8.52;3.85;;;;;;;21.57;61.13;96317.06;10329112;28;20344;-32
2023/06/20 16:21:39;;;;;;;16.85;7.32;;;;;;;21.50;59.62;96321.44;10371739;28;20030;-31
2023/06/20 16:26:39;;;;;;;17.80;7.03;;;;;;;21.46;59.21;96319.81;10369595;28;20112;-31
2023/06/20 16:31:41;;;;;;;21.80;8.33;;;;;;;21.48;59.00;96286.69;10352998;28;20821;-31
2023/06/20 16:36:41;;;;;;;27.35;12.27;;;;;;;21.59;61.44;96261.84;10368411;28;20124;-31
2023/06/20 16:41:42;;;;;;;17.87;8.53;;;;;;;21.77;60.20;96252.16;10363349;28;20068;-32
2023/06/20 16:46:43;;;;;;;18.30;6.93;;;;;;;21.75;60.13;96247.97;10371331;28;20034;-31
2023/06/20 16:51:43;;;;;;;19.48;8.60;;;;;;;21.63;60.23;96256.66;10361889;28;20033;-32
2023/06/20 16:56:44;;;;;;;17.00;9.35;;;;;;;21.54;59.22;96233.91;10377019;28;20029;-31
2023/06/20 17:01:45;;;;;;;15.77;8.03;;;;;;;21.52;59.25;96253.47;10361460;28;20049;-31
2023/06/20 17:06:46;;;;;;;15.18;6.32;;;;;;;21.50;59.07;96275.59;10365105;28;20556;-31
2023/06/20 17:11:51;;;;;;;11.97;6.60;;;;;;;21.49;59.07;96273.91;10364754;28;20045;-31
2023/06/20 17:16:51;;;;;;;18.48;7.80;;;;;;;21.48;59.00;96272.22;10349783;28;20346;-31
2023/06/20 17:21:51;;;;;;;15.52;6.63;;;;;;;21.48;58.88;96277.31;10366549;28;20397;-31
2023/06/20 17:26:52;;;;;;;11.07;5.90;;;;;;;21.67;60.28;96273.59;10375562;28;20278;-33
2023/06/20 17:31:54;;;;;;;13.60;7.30;;;;;;;21.78;60.57;96270.81;10363097;28;20467;-31
2023/06/20 17:36:54;;;;;;;13.23;7.75;;;;;;;21.68;60.77;96265.09;10351721;28;20037;-31
2023/06/20 17:41:55;;;;;;;13.50;6.90;;;;;;;21.61;59.92;96260.09;10369126;28;20034;-30
2023/06/20 17:46:55;;;;;;;18.00;9.20;;;;;;;21.53;59.14;96255.16;10379139;28;20053;-31
2023/06/20 17:51:56;;;;;;;9.50;6.15;;;;;;;21.49;58.88;96260.34;10368341;28;20042;-31
2023/06/20 17:56:56;;;;;;;13.10;5.50;;;;;;;21.46;58.85;96265.50;10364330;28;20105;-32
2023/06/20 18:01:57;;;;;;;16.17;7.37;;;;;;;21.46;58.78;96285.88;10372534;28;20038;-33
2023/06/20 18:06:57;;;;;;;10.38;7.10;;;;;;;21.48;59.98;96299.41;10376715;28;20110;-31
2023/06/20 18:11:58;;;;;;;18.13;7.27;;;;;;;21.58;62.53;96313.66;10375302;28;20465;-32
2023/06/20 18:16:58;;;;;;;11.05;5.78;;;;;;;21.77;60.74;96331.16;10388535;28;20402;-31
2023/06/20 18:21:58;;;;;;;13.07;7.10;;;;;;;21.81;62.48;96327.66;10379511;28;20048;-31
2023/06/20 18:26:59;;;;;;;12.00;7.27;;;;;;;21.84;62.40;96332.72;10354286;28;20280;-32
2023/06/20 18:31:59;;;;;;;6.97;5.30;;;;;;;21.75;59.71;96343.09;10363258;28;20839;-31
2023/06/20 18:37:00;;;;;;;6.27;4.30;;;;;;;21.73;58.79;96349.91;10382546;28;20048;-32
2023/06/20 18:42:00;;;;;;;9.73;4.37;;;;;;;21.73;59.24;96333.78;10380395;28;20064;-32
2023/06/20 18:47:00;;;;;;;8.33;4.97;;;;;;;21.71;58.57;96336.38;10390494;28;20299;-31
2023/06/20 18:52:01;;;;;;;10.17;5.47;;;;;;;21.69;58.61;96350.00;10387768;28;20304;-31
2023/06/20 18:57:03;;;;;;;6.63;5.57;;;;;;;21.77;60.54;96346.44;10377402;28;20034;-31
2023/06/20 19:02:04;;;;;;;13.23;7.28;;;;;;;21.98;64.13;96346.03;10361561;28;20037;-31
2023/06/20 19:07:04;;;;;;;11.20;7.20;;;;;;;21.90;60.68;96358.06;10360436;28;20474;-31
2023/06/20 19:12:06;;;;;;;8.75;4.85;;;;;;;21.80;59.46;96366.78;10378784;28;20050;-32
2023/06/20 19:17:07;;;;;;;8.07;4.63;;;;;;;21.78;62.30;96362.56;10354396;28;20038;-31
2023/06/20 19:22:08;;;;;;;7.70;4.97;;;;;;;21.80;61.43;96382.06;10355622;28;20065;-31
2023/06/20 19:27:08;;;;;;;7.15;4.50;;;;;;;21.78;60.50;96388.91;10376738;28;20076;-31
2023/06/20 19:32:09;;;;;;;7.73;4.43;;;;;;;21.76;59.99;96374.50;10380776;28;20056;-31
2023/06/20 19:37:09;;;;;;;6.95;4.68;;;;;;;21.73;59.81;96384.75;10368365;28;20494;-31
2023/06/20 19:42:10;;;;;;;7.03;4.47;;;;;;;21.71;59.43;96387.31;10382563;28;20041;-31
2023/06/20 19:47:10;;;;;;;10.20;5.83;;;;;;;21.85;61.38;96385.38;10375962;28;20406;-32
2023/06/20 19:52:13;;;;;;;8.17;4.63;;;;;;;21.97;60.39;96397.88;10353727;28;20077;-32
2023/06/20 19:57:13;;;;;;;7.70;4.38;;;;;;;21.85;59.05;96400.66;10360639;28;20152;-32
2023/06/20 20:02:21;;;;;;;6.03;4.30;;;;;;;21.80;59.20;96407.53;10383291;28;20152;-31
2023/06/20 20:07:21;;;;;;;6.63;3.72;;;;;;;21.74;59.34;96422.09;10381970;28;20600;-30
2023/06/20 20:12:22;;;;;;;4.90;4.40;;;;;;;21.72;59.48;96423.84;10380670;28;20056;-31
2023/06/20 20:17:22;;;;;;;4.95;4.22;;;;;;;21.69;59.45;96436.63;10368400;28;20044;-31
2023/06/20 20:22:23;;;;;;;5.60;4.13;;;;;;;21.66;59.67;96429.88;10368395;28;20048;-32
2023/06/20 20:27:23;;;;;;;6.50;3.85;;;;;;;21.65;59.54;96433.28;10362227;28;20061;-31
2023/06/20 20:32:23;;;;;;;7.80;4.40;;;;;;;21.65;60.02;96437.56;10385465;28;20072;-31
2023/06/20 20:37:24;;;;;;;7.37;4.57;;;;;;;21.85;60.59;96449.09;10358342;28;20045;-32
2023/06/20 20:42:24;;;;;;;5.37;3.90;;;;;;;21.91;59.78;96461.72;10376163;28;20045;-32
2023/06/20 20:47:25;;;;;;;6.22;4.55;;;;;;;21.77;59.31;96467.91;10358796;28;20281;-32
2023/06/20 20:52:26;;;;;;;7.77;4.47;;;;;;;21.71;59.64;96468.03;10361158;28;20513;-32
2023/06/20 20:57:27;;;;;;;7.80;4.60;;;;;;;21.66;59.57;96468.09;10369600;28;20638;-31
2023/06/20 21:02:27;;;;;;;6.67;4.13;;;;;;;21.63;59.86;96473.22;10358377;28;20041;-31
2023/06/20 21:07:27;;;;;;;5.77;3.90;;;;;;;21.63;59.63;96480.84;10378099;28;20281;-32
2023/06/20 21:12:28;;;;;;;4.78;3.92;;;;;;;21.61;59.87;96484.28;10372690;28;20034;-31
2023/06/20 21:17:28;;;;;;;4.70;3.97;;;;;;;21.59;59.57;96484.34;10386526;28;20079;-31
2023/06/20 21:22:29;;;;;;;7.17;4.90;;;;;;;21.70;61.47;96487.56;10366682;28;20030;-33
2023/06/20 21:27:29;;;;;;;5.27;4.40;;;;;;;21.88;60.22;96484.72;10381617;28;20276;-31
2023/06/20 21:32:29;;;;;;;3.97;3.03;;;;;;;21.85;59.85;96487.31;10374794;28;20060;-32
2023/06/20 21:37:30;;;;;;;4.87;3.93;;;;;;;21.71;59.53;96479.06;10381201;28;20041;-31
2023/06/20 21:42:30;;;;;;;7.03;4.40;;;;;;;21.65;59.44;96473.22;10390807;28;20492;-31
2023/06/20 21:47:30;;;;;;;4.40;3.83;;;;;;;21.61;59.84;96469.00;10372343;28;20030;-31
2023/06/20 21:52:31;;;;;;;4.83;4.00;;;;;;;21.60;59.52;96491.09;10374138;28;20175;-31
2023/06/20 21:57:31;;;;;;;6.07;4.00;;;;;;;21.59;59.88;96494.53;10349056;28;20034;-32
2023/06/20 22:02:31;;;;;;;7.50;4.53;;;;;;;21.57;59.64;96495.41;10375085;28;20409;-32
2023/06/20 22:07:32;;;;;;;4.70;4.20;;;;;;;21.57;59.62;96508.16;10372401;28;20277;-31
2023/06/20 22:12:33;;;;;;;5.33;4.10;;;;;;;21.76;60.95;96492.56;10378937;28;20044;-32
2023/06/20 22:17:33;;;;;;;4.20;3.80;;;;;;;21.91;60.06;96496.56;10381978;28;20030;-32
2023/06/20 22:22:34;;;;;;;4.38;3.22;;;;;;;21.79;59.71;96496.75;10364492;28;20045;-33
2023/06/20 22:27:35;;;;;;;3.97;3.40;;;;;;;21.69;59.29;96496.09;10387890;28;20032;-31
2023/06/20 22:32:35;;;;;;;4.18;3.72;;;;;;;21.63;59.46;96485.94;10379637;28;20675;-31
2023/06/20 22:37:35;;;;;;;7.03;4.55;;;;;;;21.61;59.50;96492.78;10387184;28;20060;-32
2023/06/20 22:42:37;;;;;;;5.23;4.03;;;;;;;21.59;59.36;96479.25;10363568;28;20034;-31
2023/06/20 22:47:37;;;;;;;5.10;4.20;;;;;;;21.57;59.47;96480.13;10379666;28;20038;-31
2023/06/20 22:52:38;;;;;;;4.50;3.77;;;;;;;21.56;58.98;96469.06;10371374;28;20033;-31
2023/06/20 22:57:38;;;;;;;6.55;3.60;;;;;;;21.61;61.06;96477.50;10362448;28;20026;-31
2023/06/20 23:02:38;;;;;;;4.13;3.50;;;;;;;21.82;60.05;96472.06;10355097;28;20494;-32
2023/06/20 23:07:39;;;;;;;3.30;3.00;;;;;;;21.87;59.84;96471.97;10369441;28;20030;-32
2023/06/20 23:12:39;;;;;;;3.30;3.00;;;;;;;21.74;59.23;96471.34;10369478;28;20034;-32
2023/06/20 23:17:39;;;;;;;3.08;2.78;;;;;;;21.65;58.97;96476.59;10385775;28;20030;-31
2023/06/20 23:22:40;;;;;;;4.87;3.70;;;;;;;21.61;59.16;96477.50;10354424;28;20053;-31